createdAt,value
2017-10-16T00:00:42.051Z,99.90
2017-10-16T00:01:45.500Z,99.90
2017-10-16T00:02:49.255Z,99.90
2017-10-16T00:03:52.106Z,99.90
2017-10-16T00:04:55.368Z,99.90
2017-10-16T00:05:58.954Z,99.90
2017-10-16T00:07:01.461Z,99.90
2017-10-16T00:08:04.342Z,99.90
2017-10-16T00:09:06.845Z,99.90
2017-10-16T00:10:09.679Z,99.90
2017-10-16T00:11:12.183Z,99.90
2017-10-16T00:12:14.965Z,99.90
2017-10-16T00:13:17.476Z,99.90
2017-10-16T00:14:20.363Z,99.90
2017-10-16T00:15:22.897Z,99.90
2017-10-16T00:16:27.508Z,99.90
2017-10-16T00:17:30.083Z,99.90
2017-10-16T00:18:33.929Z,99.90
2017-10-16T00:19:36.439Z,99.90
2017-10-16T00:20:40.042Z,99.90
2017-10-16T00:21:43.463Z,99.90
2017-10-16T00:22:46.271Z,99.90
2017-10-16T00:23:48.783Z,99.90
2017-10-16T00:24:52.478Z,99.90
2017-10-16T00:25:54.968Z,99.90
2017-10-16T00:26:57.553Z,99.90
2017-10-16T00:28:00.047Z,99.90
2017-10-16T00:29:03.535Z,99.90
2017-10-16T00:30:06.833Z,99.90
2017-10-16T00:31:10.397Z,99.90
2017-10-16T00:32:13.012Z,99.90
2017-10-16T00:33:15.787Z,99.90
2017-10-16T00:34:18.352Z,99.90
2017-10-16T00:35:21.375Z,99.90
2017-10-16T00:36:23.902Z,99.90
2017-10-16T00:37:28.576Z,99.90
2017-10-16T00:38:31.925Z,99.90
2017-10-16T00:39:34.520Z,99.90
2017-10-16T00:40:37.056Z,99.90
2017-10-16T00:41:39.896Z,99.90
2017-10-16T00:42:42.426Z,99.90
2017-10-16T00:43:46.083Z,99.90
2017-10-16T00:44:48.571Z,99.90
2017-10-16T00:45:51.131Z,99.90
2017-10-16T00:46:53.618Z,99.90
2017-10-16T00:47:56.191Z,99.90
2017-10-16T00:48:59.479Z,99.90
2017-10-16T00:50:03.251Z,99.90
2017-10-16T00:51:05.873Z,99.90
2017-10-16T00:52:08.748Z,99.90
2017-10-16T00:53:11.315Z,99.90
2017-10-16T00:54:14.089Z,99.90
2017-10-16T00:55:16.653Z,99.90
2017-10-16T00:56:20.504Z,99.90
2017-10-16T00:57:23.016Z,99.90
2017-10-16T00:58:27.900Z,99.90
2017-10-16T00:59:31.239Z,99.90
2017-10-16T01:00:34.153Z,99.90
2017-10-16T01:01:37.432Z,99.90
2017-10-16T01:02:42.168Z,99.90
2017-10-16T01:03:45.439Z,99.90
2017-10-16T01:04:48.112Z,99.90
2017-10-16T01:05:51.430Z,99.90
2017-10-16T01:06:54.986Z,99.90
2017-10-16T01:07:57.490Z,99.90
2017-10-16T01:09:01.816Z,99.90
2017-10-16T01:10:04.419Z,99.90
2017-10-16T01:11:09.039Z,99.90
2017-10-16T01:12:11.556Z,99.90
2017-10-16T01:13:14.411Z,99.90
2017-10-16T01:14:17.706Z,99.90
2017-10-16T01:15:20.309Z,99.90
2017-10-16T01:16:22.851Z,99.90
2017-10-16T01:17:25.713Z,99.90
2017-10-16T01:18:28.239Z,99.90
2017-10-16T01:19:31.163Z,99.90
2017-10-16T01:20:33.719Z,99.90
2017-10-16T01:21:37.366Z,99.90
2017-10-16T01:22:39.927Z,99.90
2017-10-16T01:23:48.313Z,99.90
2017-10-16T01:24:51.096Z,99.90
2017-10-16T01:25:53.674Z,99.90
2017-10-16T01:26:56.452Z,99.90
2017-10-16T01:27:58.958Z,99.90
2017-10-16T01:29:01.835Z,99.90
2017-10-16T01:30:04.336Z,99.90
2017-10-16T01:31:07.135Z,99.90
2017-10-16T01:32:09.846Z,99.90
2017-10-16T01:33:12.463Z,99.90
2017-10-16T01:34:14.983Z,99.90
2017-10-16T01:35:17.807Z,99.90
2017-10-16T01:36:20.445Z,99.90
2017-10-16T01:37:23.281Z,99.90
2017-10-16T01:38:25.856Z,99.90
2017-10-16T01:39:28.504Z,99.90
2017-10-16T01:40:31.819Z,99.90
2017-10-16T01:41:34.462Z,99.90
2017-10-16T01:42:37.771Z,99.90
2017-10-16T01:43:40.630Z,99.90
2017-10-16T01:44:43.122Z,99.90
2017-10-16T01:45:45.873Z,99.90
2017-10-16T01:46:48.452Z,99.90
2017-10-16T01:47:51.121Z,99.90
2017-10-16T01:48:53.649Z,99.90
2017-10-16T01:49:57.012Z,99.90
2017-10-16T01:50:59.534Z,99.90
2017-10-16T01:52:02.410Z,99.90
2017-10-16T01:53:04.908Z,99.90
2017-10-16T01:54:07.739Z,99.90
2017-10-16T01:55:10.240Z,99.90
2017-10-16T01:56:13.139Z,99.90
2017-10-16T01:57:15.652Z,99.90
2017-10-16T01:58:18.434Z,99.90
2017-10-16T01:59:20.991Z,99.90
2017-10-16T02:00:30.766Z,99.90
2017-10-16T02:01:33.292Z,99.90
2017-10-16T02:02:36.272Z,99.90
2017-10-16T02:03:38.753Z,99.90
2017-10-16T02:04:41.446Z,99.90
2017-10-16T02:05:43.936Z,99.90
2017-10-16T02:06:46.662Z,99.90
2017-10-16T02:07:49.251Z,99.90
2017-10-16T02:08:51.851Z,99.90
2017-10-16T02:09:55.366Z,99.90
2017-10-16T02:10:58.104Z,99.90
2017-10-16T02:12:01.425Z,99.90
2017-10-16T02:13:04.053Z,99.90
2017-10-16T02:14:06.541Z,99.90
2017-10-16T02:15:10.001Z,99.90
2017-10-16T02:16:12.519Z,99.90
2017-10-16T02:17:15.489Z,99.90
2017-10-16T02:18:17.979Z,99.90
2017-10-16T02:19:20.992Z,99.90
2017-10-16T02:20:23.492Z,99.90
2017-10-16T02:21:26.882Z,99.90
2017-10-16T02:22:29.461Z,99.90
2017-10-16T02:23:32.279Z,99.90
2017-10-16T02:24:35.047Z,99.90
2017-10-16T02:25:37.539Z,99.90
2017-10-16T02:26:40.944Z,99.90
2017-10-16T02:27:43.468Z,99.90
2017-10-16T02:28:46.263Z,99.90
2017-10-16T02:29:49.770Z,99.90
2017-10-16T02:30:52.477Z,99.90
2017-10-16T02:31:55.010Z,99.90
2017-10-16T02:32:57.875Z,99.90
2017-10-16T02:34:00.360Z,99.90
2017-10-16T02:35:03.151Z,99.90
2017-10-16T02:36:05.652Z,99.90
2017-10-16T02:37:09.287Z,99.90
2017-10-16T02:38:11.880Z,99.90
2017-10-16T02:39:14.682Z,99.90
2017-10-16T02:40:18.040Z,99.90
2017-10-16T02:41:20.737Z,99.90
2017-10-16T02:42:23.490Z,99.90
2017-10-16T02:43:26.068Z,99.90
2017-10-16T02:44:28.555Z,99.90
2017-10-16T02:45:36.012Z,99.90
2017-10-16T02:46:38.507Z,99.90
2017-10-16T02:47:41.972Z,99.90
2017-10-16T02:48:44.487Z,99.90
2017-10-16T02:49:47.316Z,99.90
2017-10-16T02:50:50.431Z,99.90
2017-10-16T02:51:53.253Z,99.90
2017-10-16T02:52:55.767Z,99.90
2017-10-16T02:53:58.584Z,99.90
2017-10-16T02:55:01.090Z,99.90
2017-10-16T02:56:04.556Z,99.90
2017-10-16T02:57:07.046Z,99.90
2017-10-16T02:58:10.477Z,99.90
2017-10-16T02:59:12.975Z,99.90
2017-10-16T03:00:16.462Z,99.90
2017-10-16T03:01:19.065Z,99.90
2017-10-16T03:02:21.833Z,99.90
2017-10-16T03:03:24.372Z,99.90
2017-10-16T03:04:27.741Z,99.90
2017-10-16T03:05:30.248Z,99.90
2017-10-16T03:06:33.073Z,99.90
2017-10-16T03:07:35.570Z,99.90
2017-10-16T03:08:39.020Z,99.90
2017-10-16T03:09:41.521Z,99.90
2017-10-16T03:10:44.988Z,99.90
2017-10-16T03:11:47.603Z,99.90
2017-10-16T03:12:50.377Z,99.90
2017-10-16T03:13:52.883Z,99.90
2017-10-16T03:14:55.664Z,99.90
2017-10-16T03:15:58.164Z,99.90
2017-10-16T03:17:02.533Z,99.90
2017-10-16T03:18:05.056Z,99.90
2017-10-16T03:19:07.880Z,99.90
2017-10-16T03:20:10.888Z,99.90
2017-10-16T03:21:15.386Z,99.90
2017-10-16T03:22:17.879Z,99.90
2017-10-16T03:23:20.743Z,99.90
2017-10-16T03:24:23.487Z,99.90
2017-10-16T03:25:26.019Z,99.90
2017-10-16T03:26:29.000Z,99.90
2017-10-16T03:27:31.849Z,99.90
2017-10-16T03:28:34.804Z,99.90
2017-10-16T03:29:38.269Z,99.90
2017-10-16T03:30:40.886Z,99.90
2017-10-16T03:31:43.603Z,99.90
2017-10-16T03:32:46.120Z,99.90
2017-10-16T03:33:49.020Z,99.90
2017-10-16T03:34:51.623Z,99.90
2017-10-16T03:35:54.277Z,99.90
2017-10-16T03:36:56.828Z,99.90
2017-10-16T03:37:59.666Z,99.90
2017-10-16T03:39:02.188Z,99.90
2017-10-16T03:40:04.958Z,99.90
2017-10-16T03:41:07.469Z,99.90
2017-10-16T03:42:11.235Z,99.90
2017-10-16T03:43:14.527Z,99.90
2017-10-16T03:44:18.088Z,99.90
2017-10-16T03:45:20.589Z,99.90
2017-10-16T03:46:23.480Z,99.90
2017-10-16T03:47:26.008Z,99.90
2017-10-16T03:48:28.897Z,99.90
2017-10-16T03:49:32.148Z,99.90
2017-10-16T03:50:34.701Z,99.90
2017-10-16T03:51:37.206Z,99.90
2017-10-16T03:52:44.081Z,99.90
2017-10-16T03:53:47.381Z,99.90
2017-10-16T03:54:50.018Z,99.90
2017-10-16T03:55:52.501Z,99.90
2017-10-16T03:56:55.979Z,99.90
2017-10-16T03:57:58.504Z,99.90
2017-10-16T03:59:01.303Z,99.90
2017-10-16T04:00:03.823Z,99.90
2017-10-16T04:01:06.660Z,99.90
2017-10-16T04:02:09.980Z,99.90
2017-10-16T04:03:12.615Z,99.90
2017-10-16T04:04:15.897Z,99.90
2017-10-16T04:05:19.498Z,99.90
2017-10-16T04:06:22.898Z,99.90
2017-10-16T04:07:26.345Z,99.90
2017-10-16T04:08:28.961Z,99.90
2017-10-16T04:09:32.581Z,99.90
2017-10-16T04:10:36.007Z,99.90
2017-10-16T04:11:39.653Z,99.90
2017-10-16T04:12:42.143Z,99.90
2017-10-16T04:13:45.791Z,99.90
2017-10-16T04:14:52.453Z,99.90
2017-10-16T04:15:56.005Z,99.90
2017-10-16T04:16:58.514Z,99.90
2017-10-16T04:18:02.262Z,99.90
2017-10-16T04:19:04.870Z,99.90
2017-10-16T04:20:08.520Z,99.90
2017-10-16T04:21:11.001Z,99.90
2017-10-16T04:22:16.013Z,99.90
2017-10-16T04:23:18.620Z,99.90
2017-10-16T04:24:22.308Z,99.90
2017-10-16T04:25:25.559Z,99.90
2017-10-16T04:26:28.882Z,99.90
2017-10-16T04:27:31.930Z,99.90
2017-10-16T04:28:35.204Z,99.90
2017-10-16T04:29:39.965Z,99.90
2017-10-16T04:30:42.460Z,99.90
2017-10-16T04:31:45.904Z,99.90
2017-10-16T04:32:49.230Z,99.90
2017-10-16T04:33:51.968Z,99.90
2017-10-16T04:34:54.495Z,99.90
2017-10-16T04:35:57.165Z,99.90
2017-10-16T04:36:59.648Z,99.90
2017-10-16T04:38:03.127Z,99.90
2017-10-16T04:39:06.472Z,99.90
2017-10-16T04:40:09.161Z,99.90
2017-10-16T04:41:11.654Z,99.90
2017-10-16T04:42:14.425Z,99.90
2017-10-16T04:43:17.699Z,99.90
2017-10-16T04:44:20.376Z,99.90
2017-10-16T04:45:22.902Z,99.90
2017-10-16T04:46:26.058Z,99.90
2017-10-16T04:47:28.539Z,99.90
2017-10-16T04:48:31.391Z,99.90
2017-10-16T04:49:33.933Z,99.90
2017-10-16T04:50:39.499Z,99.90
2017-10-16T04:51:42.078Z,99.90
2017-10-16T04:52:46.617Z,99.90
2017-10-16T04:53:49.115Z,99.90
2017-10-16T04:54:53.982Z,99.90
2017-10-16T04:55:56.514Z,99.90
2017-10-16T04:57:01.007Z,99.90
2017-10-16T04:58:03.518Z,99.90
2017-10-16T04:59:06.319Z,99.90
2017-10-16T05:00:08.853Z,99.90
2017-10-16T05:01:11.686Z,99.90
2017-10-16T05:02:14.269Z,99.90
2017-10-16T05:03:17.902Z,99.90
2017-10-16T05:04:20.574Z,99.90
2017-10-16T05:05:23.188Z,99.90
2017-10-16T05:06:25.738Z,99.90
2017-10-16T05:07:29.447Z,99.90
2017-10-16T05:08:31.964Z,99.90
2017-10-16T05:09:34.480Z,99.90
2017-10-16T05:10:36.970Z,99.90
2017-10-16T05:11:40.708Z,99.90
2017-10-16T05:12:43.230Z,99.90
2017-10-16T05:13:45.780Z,99.90
2017-10-16T05:14:48.283Z,99.90
2017-10-16T05:15:50.865Z,99.90
2017-10-16T05:16:53.429Z,99.90
2017-10-16T05:17:56.154Z,99.90
2017-10-16T05:18:58.628Z,99.90
2017-10-16T05:20:03.009Z,99.90
2017-10-16T05:21:05.538Z,99.90
2017-10-16T05:22:08.111Z,99.90
2017-10-16T05:23:11.180Z,99.90
2017-10-16T05:24:13.690Z,99.90
2017-10-16T05:25:16.202Z,99.90
2017-10-16T05:26:19.647Z,99.90
2017-10-16T05:27:22.176Z,99.90
2017-10-16T05:28:24.719Z,99.90
2017-10-16T05:29:28.141Z,99.90
2017-10-16T05:30:30.996Z,99.90
2017-10-16T05:31:33.502Z,99.90
2017-10-16T05:32:36.033Z,99.90
2017-10-16T05:33:38.597Z,99.90
2017-10-16T05:34:41.470Z,99.90
2017-10-16T05:35:44.138Z,99.90
2017-10-16T05:36:46.641Z,99.90
2017-10-16T05:37:49.758Z,99.90
2017-10-16T05:38:54.173Z,99.90
2017-10-16T05:39:57.438Z,99.90
2017-10-16T05:41:00.081Z,99.90
2017-10-16T05:42:02.566Z,99.90
2017-10-16T05:43:05.136Z,99.90
2017-10-16T05:44:07.661Z,99.90
2017-10-16T05:45:13.447Z,99.90
2017-10-16T05:46:15.978Z,99.90
2017-10-16T05:47:18.629Z,99.90
2017-10-16T05:48:21.126Z,99.90
2017-10-16T05:49:23.610Z,99.90
2017-10-16T05:50:26.149Z,99.90
2017-10-16T05:51:28.635Z,99.90
2017-10-16T05:52:31.781Z,99.90
2017-10-16T05:53:34.392Z,99.90
2017-10-16T05:54:36.903Z,99.90
2017-10-16T05:55:39.643Z,99.90
2017-10-16T05:56:43.447Z,99.90
2017-10-16T05:57:46.163Z,99.90
2017-10-16T05:58:48.653Z,99.90
2017-10-16T05:59:51.227Z,99.90
2017-10-16T06:00:53.935Z,99.90
2017-10-16T06:01:56.604Z,99.90
2017-10-16T06:02:59.112Z,99.90
2017-10-16T06:04:01.643Z,99.90
2017-10-16T06:05:04.155Z,99.90
2017-10-16T06:06:07.690Z,99.90
2017-10-16T06:07:10.185Z,99.90
2017-10-16T06:08:12.959Z,99.90
2017-10-16T06:09:15.530Z,99.90
2017-10-16T06:10:20.227Z,99.90
2017-10-16T06:11:22.739Z,99.90
2017-10-16T06:12:25.814Z,99.90
2017-10-16T06:13:34.599Z,99.90
2017-10-16T06:14:38.142Z,99.90
2017-10-16T06:15:41.676Z,99.90
2017-10-16T06:16:44.413Z,99.90
2017-10-16T06:17:46.944Z,99.90
2017-10-16T06:18:49.434Z,99.90
2017-10-16T06:19:51.914Z,99.90
2017-10-16T06:20:55.599Z,99.90
2017-10-16T06:21:58.100Z,99.90
2017-10-16T06:23:00.747Z,99.90
2017-10-16T06:24:04.038Z,99.90
2017-10-16T06:25:07.303Z,99.90
2017-10-16T06:26:11.000Z,99.90
2017-10-16T06:27:13.601Z,99.90
2017-10-16T06:28:16.242Z,99.90
2017-10-16T06:29:19.865Z,99.90
2017-10-16T06:30:22.506Z,99.90
2017-10-16T06:31:26.151Z,99.90
2017-10-16T06:32:28.776Z,99.90
2017-10-16T06:33:32.083Z,99.90
2017-10-16T06:34:34.853Z,99.90
2017-10-16T06:35:37.409Z,99.90
2017-10-16T06:36:48.196Z,99.90
2017-10-16T06:37:50.918Z,99.90
2017-10-16T06:38:53.532Z,99.90
2017-10-16T06:39:56.210Z,99.90
2017-10-16T06:40:58.736Z,99.90
2017-10-16T06:42:02.013Z,99.90
2017-10-16T06:43:04.808Z,99.90
2017-10-16T06:44:08.161Z,99.90
2017-10-16T06:45:11.018Z,99.90
2017-10-16T06:46:13.980Z,99.90
2017-10-16T06:47:16.661Z,99.90
2017-10-16T06:48:19.171Z,99.90
2017-10-16T06:49:22.645Z,99.90
2017-10-16T06:50:29.519Z,99.90
2017-10-16T06:51:32.343Z,99.90
2017-10-16T06:52:35.742Z,99.90
2017-10-16T06:53:38.516Z,99.90
2017-10-16T06:54:41.072Z,99.90
2017-10-16T06:55:43.791Z,99.90
2017-10-16T06:56:46.302Z,99.90
2017-10-16T06:57:50.696Z,99.90
2017-10-16T06:58:54.009Z,99.90
2017-10-16T06:59:56.635Z,99.90
2017-10-16T07:00:59.172Z,99.90
2017-10-16T07:02:01.919Z,99.90
2017-10-16T07:03:04.486Z,99.90
2017-10-16T07:04:07.313Z,99.90
2017-10-16T07:05:09.800Z,99.90
2017-10-16T07:06:13.245Z,99.90
2017-10-16T07:07:15.772Z,99.90
2017-10-16T07:08:20.496Z,99.90
2017-10-16T07:09:46.189Z,99.90
2017-10-16T07:10:48.708Z,99.90
2017-10-16T07:11:51.496Z,99.90
2017-10-16T07:12:54.026Z,99.90
2017-10-16T07:13:57.446Z,99.90
2017-10-16T07:15:00.521Z,99.90
2017-10-16T07:16:03.089Z,99.90
2017-10-16T07:17:07.597Z,99.90
2017-10-16T07:18:13.092Z,99.90
2017-10-16T07:19:15.607Z,99.90
2017-10-16T07:20:18.274Z,99.90
2017-10-16T07:21:20.774Z,99.90
2017-10-16T07:22:25.371Z,99.90
2017-10-16T07:23:27.973Z,99.90
2017-10-16T07:24:30.765Z,99.80
2017-10-16T07:25:33.327Z,99.60
2017-10-16T07:26:40.595Z,97.80
2017-10-16T07:27:43.114Z,97.40
2017-10-16T07:28:45.929Z,96.80
2017-10-16T07:29:48.509Z,96.90
2017-10-16T07:30:51.898Z,96.70
2017-10-16T07:31:54.431Z,96.40
2017-10-16T07:32:57.153Z,95.50
2017-10-16T07:33:59.705Z,97.00
2017-10-16T07:35:03.160Z,99.40
2017-10-16T07:36:07.100Z,99.50
2017-10-16T07:37:09.789Z,99.20
2017-10-16T07:38:13.169Z,99.00
2017-10-16T07:39:16.019Z,98.90
2017-10-16T07:40:18.532Z,96.10
2017-10-16T07:41:22.249Z,94.80
2017-10-16T07:42:24.777Z,96.80
2017-10-16T07:43:33.121Z,94.20
2017-10-16T07:44:36.447Z,95.80
2017-10-16T07:45:39.049Z,95.70
2017-10-16T07:46:41.563Z,95.80
2017-10-16T07:47:45.219Z,96.90
2017-10-16T07:48:47.760Z,94.80
2017-10-16T07:49:50.280Z,91.70
2017-10-16T07:50:53.591Z,92.10
2017-10-16T07:51:56.193Z,92.00
2017-10-16T07:52:58.769Z,92.40
2017-10-16T07:54:01.524Z,91.20
2017-10-16T07:55:04.050Z,90.70
2017-10-16T07:56:07.547Z,84.20
2017-10-16T07:57:10.043Z,84.30
2017-10-16T07:58:17.596Z,81.30
2017-10-16T07:59:20.108Z,80.60
2017-10-16T08:00:22.825Z,80.90
2017-10-16T08:01:29.940Z,76.10
2017-10-16T08:02:32.513Z,81.90
2017-10-16T08:03:35.082Z,80.00
2017-10-16T08:04:41.844Z,76.10
2017-10-16T08:05:45.143Z,76.20
2017-10-16T08:06:47.774Z,76.20
2017-10-16T08:07:50.310Z,74.50
2017-10-16T08:08:53.200Z,71.90
2017-10-16T08:09:55.725Z,76.20
2017-10-16T08:10:59.404Z,75.10
2017-10-16T08:12:02.710Z,68.20
2017-10-16T08:13:06.163Z,67.00
2017-10-16T08:14:09.437Z,63.40
2017-10-16T08:15:12.316Z,62.50
2017-10-16T08:16:15.622Z,64.20
2017-10-16T08:17:19.341Z,69.50
2017-10-16T08:18:22.008Z,69.10
2017-10-16T08:19:24.737Z,70.40
2017-10-16T08:20:27.256Z,66.20
2017-10-16T08:21:30.122Z,66.00
2017-10-16T08:22:32.892Z,65.00
2017-10-16T08:23:35.640Z,65.80
2017-10-16T08:24:38.952Z,60.00
2017-10-16T08:25:43.520Z,59.90
2017-10-16T08:26:46.062Z,59.80
2017-10-16T08:27:48.746Z,60.70
2017-10-16T08:28:51.311Z,59.50
2017-10-16T08:29:53.803Z,57.90
2017-10-16T08:30:57.099Z,59.40
2017-10-16T08:32:00.711Z,58.10
2017-10-16T08:33:04.092Z,58.10
2017-10-16T08:34:07.992Z,57.60
2017-10-16T08:35:10.497Z,57.90
2017-10-16T08:36:13.020Z,56.10
2017-10-16T08:37:15.592Z,54.10
2017-10-16T08:38:18.310Z,58.40
2017-10-16T08:39:20.833Z,58.10
2017-10-16T08:40:23.687Z,59.20
2017-10-16T08:41:26.199Z,62.30
2017-10-16T08:42:29.244Z,66.60
2017-10-16T08:43:32.132Z,71.40
2017-10-16T08:44:40.786Z,75.70
2017-10-16T08:45:43.332Z,75.40
2017-10-16T08:46:46.131Z,79.80
2017-10-16T08:47:49.415Z,85.60
2017-10-16T08:48:53.314Z,88.30
2017-10-16T08:49:56.607Z,88.50
2017-10-16T08:51:01.142Z,82.40
2017-10-16T08:52:04.417Z,78.20
2017-10-16T08:53:06.978Z,78.10
2017-10-16T08:54:09.521Z,76.90
2017-10-16T08:55:21.070Z,79.40
2017-10-16T08:56:23.606Z,79.40
2017-10-16T08:57:27.322Z,83.30
2017-10-16T08:58:29.827Z,87.80
2017-10-16T08:59:33.563Z,88.20
2017-10-16T09:00:36.127Z,86.70
2017-10-16T09:01:38.749Z,82.80
2017-10-16T09:02:41.286Z,77.10
2017-10-16T09:03:43.791Z,71.40
2017-10-16T09:04:47.056Z,67.20
2017-10-16T09:05:52.938Z,67.10
2017-10-16T09:06:56.113Z,67.00
2017-10-16T09:07:59.380Z,64.10
2017-10-16T09:09:01.986Z,64.10
2017-10-16T09:10:04.513Z,65.40
2017-10-16T09:11:07.192Z,63.70
2017-10-16T09:12:10.672Z,66.40
2017-10-16T09:13:13.188Z,66.20
2017-10-16T09:14:15.806Z,64.40
2017-10-16T09:15:18.295Z,65.60
2017-10-16T09:16:21.247Z,66.60
2017-10-16T09:17:23.797Z,67.90
2017-10-16T09:18:26.481Z,67.10
2017-10-16T09:19:29.002Z,67.30
2017-10-16T09:20:33.013Z,69.50
2017-10-16T09:21:35.762Z,68.00
2017-10-16T09:22:38.326Z,65.90
2017-10-16T09:23:41.101Z,68.60
2017-10-16T09:24:43.746Z,66.80
2017-10-16T09:25:47.031Z,72.70
2017-10-16T09:26:50.520Z,73.00
2017-10-16T09:27:53.866Z,73.70
2017-10-16T09:28:56.529Z,73.10
2017-10-16T09:29:59.058Z,73.00
2017-10-16T09:31:03.450Z,72.20
2017-10-16T09:32:06.724Z,74.10
2017-10-16T09:33:10.271Z,73.50
2017-10-16T09:34:12.782Z,73.30
2017-10-16T09:35:16.289Z,78.40
2017-10-16T09:36:18.776Z,78.50
2017-10-16T09:37:21.521Z,79.00
2017-10-16T09:38:24.060Z,79.00
2017-10-16T09:39:26.585Z,81.10
2017-10-16T09:40:29.080Z,81.50
2017-10-16T09:41:31.583Z,83.30
2017-10-16T09:42:34.683Z,85.10
2017-10-16T09:43:37.554Z,89.40
2017-10-16T09:44:40.058Z,90.70
2017-10-16T09:45:42.562Z,91.30
2017-10-16T09:46:45.873Z,93.30
2017-10-16T09:47:48.771Z,93.30
2017-10-16T09:48:51.279Z,93.80
2017-10-16T09:49:54.762Z,94.40
2017-10-16T09:50:58.093Z,94.60
2017-10-16T09:52:00.827Z,94.70
2017-10-16T09:53:03.345Z,94.80
2017-10-16T09:54:06.159Z,94.50
2017-10-16T09:55:09.438Z,94.80
2017-10-16T09:56:12.110Z,94.80
2017-10-16T09:57:14.631Z,94.80
2017-10-16T09:58:17.480Z,95.10
2017-10-16T09:59:20.062Z,95.50
2017-10-16T10:00:22.695Z,95.70
2017-10-16T10:01:25.975Z,95.90
2017-10-16T10:02:29.402Z,96.40
2017-10-16T10:03:31.897Z,96.40
2017-10-16T10:04:34.916Z,96.90
2017-10-16T10:05:37.489Z,96.80
2017-10-16T10:06:41.259Z,96.40
2017-10-16T10:07:44.572Z,96.00
2017-10-16T10:08:50.856Z,95.70
2017-10-16T10:09:53.390Z,95.70
2017-10-16T10:10:57.112Z,95.70
2017-10-16T10:12:00.209Z,95.80
2017-10-16T10:13:02.706Z,95.40
2017-10-16T10:14:05.966Z,95.60
2017-10-16T10:15:08.919Z,95.50
2017-10-16T10:16:11.469Z,95.70
2017-10-16T10:17:14.130Z,96.00
2017-10-16T10:18:16.631Z,96.40
2017-10-16T10:19:19.347Z,96.70
2017-10-16T10:20:22.651Z,97.50
2017-10-16T10:21:26.262Z,97.40
2017-10-16T10:22:28.743Z,97.70
2017-10-16T10:23:31.240Z,97.20
2017-10-16T10:36:10.372Z,97.70
2017-10-16T10:37:13.711Z,96.90
2017-10-16T10:38:17.302Z,97.60
2017-10-16T10:39:19.796Z,97.50
2017-10-16T10:40:23.333Z,97.00
2017-10-16T10:41:25.839Z,97.00
2017-10-16T10:42:29.218Z,97.50
2017-10-16T10:43:31.705Z,97.50
2017-10-16T10:44:36.286Z,97.90
2017-10-16T10:45:38.772Z,97.90
2017-10-16T10:46:42.262Z,97.20
2017-10-16T10:47:45.572Z,97.30
2017-10-16T10:48:48.291Z,97.40
2017-10-16T10:50:15.071Z,97.60
2017-10-16T10:51:17.580Z,97.30
2017-10-16T10:52:22.430Z,96.80
2017-10-16T10:53:25.712Z,97.70
2017-10-16T10:54:28.389Z,97.60
2017-10-16T10:55:31.704Z,97.20
2017-10-16T10:56:34.350Z,97.10
2017-10-16T10:57:37.672Z,97.40
2017-10-16T10:58:40.274Z,97.30
2017-10-16T10:59:42.815Z,97.30
2017-10-16T11:00:46.588Z,97.00
2017-10-16T11:01:49.163Z,97.20
2017-10-16T11:02:51.867Z,97.20
2017-10-16T11:03:54.374Z,97.50
2017-10-16T11:04:58.155Z,97.30
2017-10-16T11:06:01.441Z,97.20
2017-10-16T11:07:05.068Z,97.30
2017-10-16T11:08:07.633Z,97.20
2017-10-16T11:09:10.378Z,97.40
2017-10-16T11:10:13.688Z,97.30
2017-10-16T11:11:16.296Z,97.30
2017-10-16T11:12:18.781Z,97.60
2017-10-16T11:13:22.293Z,98.10
2017-10-16T11:14:25.702Z,97.90
2017-10-16T11:15:28.526Z,97.70
2017-10-16T11:16:31.154Z,97.50
2017-10-16T11:17:33.915Z,97.60
2017-10-16T11:18:36.554Z,97.30
2017-10-16T11:19:40.175Z,97.30
2017-10-16T11:20:42.835Z,97.30
2017-10-16T11:21:45.459Z,97.80
2017-10-16T11:22:48.050Z,97.20
2017-10-16T11:23:51.339Z,97.50
2017-10-16T11:24:53.924Z,97.50
2017-10-16T11:25:57.263Z,97.30
2017-10-16T11:26:59.726Z,97.10
2017-10-16T11:28:02.449Z,97.20
2017-10-16T11:29:04.952Z,97.40
2017-10-16T11:30:07.789Z,97.70
2017-10-16T11:31:10.554Z,97.90
2017-10-16T11:32:13.395Z,97.90
2017-10-16T11:33:16.670Z,97.30
2017-10-16T11:34:19.423Z,97.20
2017-10-16T11:35:21.984Z,97.00
2017-10-16T11:36:24.720Z,97.50
2017-10-16T11:37:28.007Z,97.40
2017-10-16T11:38:30.671Z,97.10
2017-10-16T11:39:33.250Z,97.30
2017-10-16T11:40:35.778Z,96.80
2017-10-16T11:41:39.092Z,96.40
2017-10-16T11:42:41.925Z,96.30
2017-10-16T11:43:45.215Z,96.30
2017-10-16T11:44:50.092Z,96.50
2017-10-16T11:45:52.738Z,96.10
2017-10-16T11:46:56.457Z,96.30
2017-10-16T11:47:59.045Z,96.10
2017-10-16T11:49:01.664Z,95.90
2017-10-16T11:50:04.283Z,96.20
2017-10-16T11:51:07.011Z,95.80
2017-10-16T11:52:09.561Z,95.80
2017-10-16T11:53:12.824Z,95.30
2017-10-16T11:54:16.216Z,95.80
2017-10-16T11:55:19.802Z,95.60
2017-10-16T11:56:23.180Z,95.60
2017-10-16T11:57:25.747Z,95.30
2017-10-16T11:58:29.524Z,95.50
2017-10-16T11:59:32.215Z,95.50
2017-10-16T12:00:35.594Z,95.80
2017-10-16T12:01:39.198Z,95.60
2017-10-16T12:02:42.458Z,95.60
2017-10-16T12:03:46.085Z,94.80
2017-10-16T12:04:49.357Z,94.70
2017-10-16T12:05:52.673Z,94.60
2017-10-16T12:06:55.238Z,95.10
2017-10-16T12:07:57.968Z,95.20
2017-10-16T12:09:00.513Z,95.00
2017-10-16T12:10:03.327Z,95.20
2017-10-16T12:11:06.583Z,94.50
2017-10-16T12:12:09.251Z,94.50
2017-10-16T12:13:11.759Z,94.50
2017-10-16T12:14:14.966Z,94.30
2017-10-16T12:15:17.517Z,93.90
2017-10-16T12:16:22.653Z,94.30
2017-10-16T12:17:25.903Z,94.50
2017-10-16T12:18:29.216Z,94.60
2017-10-16T12:19:31.699Z,94.60
2017-10-16T12:20:34.196Z,94.60
2017-10-16T12:21:37.452Z,94.40
2017-10-16T12:22:41.223Z,94.40
2017-10-16T12:23:43.783Z,94.40
2017-10-16T12:24:47.172Z,94.50
2017-10-16T12:25:49.769Z,94.80
2017-10-16T12:26:54.403Z,94.80
2017-10-16T12:27:56.937Z,94.50
2017-10-16T12:28:59.690Z,94.80
2017-10-16T12:30:02.399Z,95.10
2017-10-16T12:31:04.935Z,95.10
2017-10-16T12:32:07.439Z,94.40
2017-10-16T12:33:09.955Z,94.20
2017-10-16T12:34:12.513Z,94.20
2017-10-16T12:35:15.640Z,94.30
2017-10-16T12:36:18.142Z,94.70
2017-10-16T12:37:21.872Z,94.30
2017-10-16T12:38:24.704Z,94.10
2017-10-16T12:39:27.977Z,93.80
2017-10-16T12:40:30.496Z,93.80
2017-10-16T12:41:33.002Z,93.40
2017-10-16T12:42:35.524Z,93.40
2017-10-16T12:43:38.031Z,93.90
2017-10-16T12:44:40.640Z,94.10
2017-10-16T12:45:43.140Z,93.60
2017-10-16T12:46:45.944Z,93.70
2017-10-16T12:47:49.272Z,93.10
2017-10-16T12:48:51.911Z,93.10
2017-10-16T12:49:55.204Z,93.10
2017-10-16T12:50:59.224Z,93.40
2017-10-16T12:52:01.792Z,93.40
2017-10-16T12:53:05.435Z,93.60
2017-10-16T12:54:07.942Z,93.30
2017-10-16T12:55:15.035Z,93.20
2017-10-16T12:56:17.522Z,93.30
2017-10-16T12:57:20.345Z,93.30
2017-10-16T12:58:23.643Z,93.00
2017-10-16T12:59:26.279Z,93.00
2017-10-16T13:00:28.761Z,93.30
2017-10-16T13:01:32.268Z,93.10
2017-10-16T13:02:34.794Z,93.10
2017-10-16T13:03:37.459Z,93.10
2017-10-16T13:04:40.048Z,93.10
2017-10-16T13:05:43.534Z,92.80
2017-10-16T13:06:49.701Z,92.70
2017-10-16T13:07:52.543Z,92.70
2017-10-16T13:08:55.765Z,92.80
2017-10-16T13:09:58.486Z,92.90
2017-10-16T13:11:01.129Z,93.10
2017-10-16T13:12:03.807Z,93.10
2017-10-16T13:13:06.350Z,93.30
2017-10-16T13:14:10.836Z,93.00
2017-10-16T13:15:13.402Z,92.70
2017-10-16T13:16:16.964Z,92.70
2017-10-16T13:17:19.471Z,92.70
2017-10-16T13:18:22.306Z,92.30
2017-10-16T13:19:25.632Z,92.60
2017-10-16T13:20:28.234Z,92.50
2017-10-16T13:21:34.367Z,92.70
2017-10-16T13:22:40.044Z,92.70
2017-10-16T13:23:42.553Z,92.80
2017-10-16T13:24:45.480Z,93.00
2017-10-16T13:25:49.840Z,93.10
2017-10-16T13:26:52.610Z,93.10
2017-10-16T13:27:55.163Z,93.10
2017-10-16T13:28:57.838Z,92.90
2017-10-16T13:30:01.236Z,93.00
2017-10-16T13:31:04.004Z,93.00
2017-10-16T13:32:06.673Z,92.90
2017-10-16T13:33:09.180Z,93.10
2017-10-16T13:34:11.815Z,93.30
2017-10-16T13:35:14.625Z,92.80
2017-10-16T13:36:17.144Z,93.10
2017-10-16T13:37:19.872Z,92.60
2017-10-16T13:38:22.746Z,92.40
2017-10-16T13:39:25.499Z,92.80
2017-10-16T13:40:28.767Z,92.60
2017-10-16T13:41:31.464Z,92.80
2017-10-16T13:42:33.955Z,92.30
2017-10-16T13:43:39.324Z,92.70
2017-10-16T13:44:42.698Z,92.70